sensor_id;sensor_type;location;lat;lon;timestamp;P1;durP1;ratioP1;P2;durP2;ratioP2
12567;SDS011;6349;50.904;6.136;2024-01-11T00:00:38;16.40;;;9.93;;
12567;SDS011;6349;50.904;6.136;2024-01-11T00:02:38;15.33;;;9.50;;
12567;SDS011;6349;50.904;6.136;2024-01-11T00:04:39;14.83;;;9.33;;
12567;SDS011;6349;50.904;6.136;2024-01-11T00:06:41;13.13;;;8.80;;
12567;SDS011;6349;50.904;6.136;2024-01-11T00:08:42;12.63;;;9.23;;
12567;SDS011;6349;50.904;6.136;2024-01-11T00:10:43;14.47;;;8.87;;
12567;SDS011;6349;50.904;6.136;2024-01-11T00:12:44;12.63;;;8.70;;
12567;SDS011;6349;50.904;6.136;2024-01-11T00:14:44;14.60;;;8.57;;
12567;SDS011;6349;50.904;6.136;2024-01-11T00:16:46;12.10;;;8.83;;
12567;SDS011;6349;50.904;6.136;2024-01-11T00:18:46;13.20;;;9.20;;
12567;SDS011;6349;50.904;6.136;2024-01-11T00:20:47;12.33;;;8.13;;
12567;SDS011;6349;50.904;6.136;2024-01-11T00:22:47;12.93;;;9.10;;
12567;SDS011;6349;50.904;6.136;2024-01-11T00:24:48;11.60;;;8.40;;
12567;SDS011;6349;50.904;6.136;2024-01-11T00:26:49;12.60;;;8.60;;
12567;SDS011;6349;50.904;6.136;2024-01-11T00:28:49;13.80;;;9.07;;
12567;SDS011;6349;50.904;6.136;2024-01-11T00:30:50;13.17;;;8.53;;
12567;SDS011;6349;50.904;6.136;2024-01-11T00:32:50;14.07;;;9.17;;
12567;SDS011;6349;50.904;6.136;2024-01-11T00:34:51;14.63;;;9.27;;
12567;SDS011;6349;50.904;6.136;2024-01-11T00:36:52;12.87;;;8.80;;
12567;SDS011;6349;50.904;6.136;2024-01-11T00:38:53;13.87;;;8.70;;
12567;SDS011;6349;50.904;6.136;2024-01-11T00:40:54;14.33;;;8.90;;
12567;SDS011;6349;50.904;6.136;2024-01-11T00:42:54;13.97;;;9.50;;
12567;SDS011;6349;50.904;6.136;2024-01-11T00:44:55;11.80;;;8.73;;
12567;SDS011;6349;50.904;6.136;2024-01-11T00:46:55;13.80;;;8.70;;
12567;SDS011;6349;50.904;6.136;2024-01-11T00:48:56;11.90;;;9.10;;
12567;SDS011;6349;50.904;6.136;2024-01-11T00:50:56;13.20;;;8.73;;
12567;SDS011;6349;50.904;6.136;2024-01-11T00:52:57;13.77;;;9.20;;
12567;SDS011;6349;50.904;6.136;2024-01-11T00:54:57;13.63;;;9.73;;
12567;SDS011;6349;50.904;6.136;2024-01-11T00:56:58;14.00;;;9.03;;
12567;SDS011;6349;50.904;6.136;2024-01-11T00:58:58;14.70;;;9.30;;
12567;SDS011;6349;50.904;6.136;2024-01-11T01:00:59;13.60;;;8.70;;
12567;SDS011;6349;50.904;6.136;2024-01-11T01:03:00;12.63;;;9.07;;
12567;SDS011;6349;50.904;6.136;2024-01-11T01:05:00;13.57;;;9.30;;
12567;SDS011;6349;50.904;6.136;2024-01-11T01:07:01;14.07;;;9.50;;
12567;SDS011;6349;50.904;6.136;2024-01-11T01:09:01;12.53;;;8.83;;
12567;SDS011;6349;50.904;6.136;2024-01-11T01:11:02;12.20;;;8.77;;
12567;SDS011;6349;50.904;6.136;2024-01-11T01:13:03;12.17;;;8.33;;
12567;SDS011;6349;50.904;6.136;2024-01-11T01:15:04;12.87;;;8.97;;
12567;SDS011;6349;50.904;6.136;2024-01-11T01:17:05;12.90;;;8.63;;
12567;SDS011;6349;50.904;6.136;2024-01-11T01:19:05;11.83;;;8.23;;
12567;SDS011;6349;50.904;6.136;2024-01-11T01:21:06;11.93;;;8.27;;
12567;SDS011;6349;50.904;6.136;2024-01-11T01:23:06;11.63;;;8.50;;
12567;SDS011;6349;50.904;6.136;2024-01-11T01:25:07;12.13;;;8.70;;
12567;SDS011;6349;50.904;6.136;2024-01-11T01:27:08;11.90;;;8.67;;
12567;SDS011;6349;50.904;6.136;2024-01-11T01:29:08;12.67;;;8.27;;
12567;SDS011;6349;50.904;6.136;2024-01-11T01:31:09;13.17;;;9.03;;
12567;SDS011;6349;50.904;6.136;2024-01-11T01:33:10;11.80;;;8.50;;
12567;SDS011;6349;50.904;6.136;2024-01-11T01:35:11;12.07;;;8.60;;
12567;SDS011;6349;50.904;6.136;2024-01-11T01:37:11;12.77;;;9.03;;
12567;SDS011;6349;50.904;6.136;2024-01-11T01:39:12;13.53;;;9.47;;
12567;SDS011;6349;50.904;6.136;2024-01-11T01:41:13;12.47;;;9.40;;
12567;SDS011;6349;50.904;6.136;2024-01-11T01:43:13;12.70;;;8.80;;
12567;SDS011;6349;50.904;6.136;2024-01-11T01:45:14;11.50;;;8.30;;
12567;SDS011;6349;50.904;6.136;2024-01-11T01:47:16;14.17;;;8.87;;
12567;SDS011;6349;50.904;6.136;2024-01-11T01:49:18;12.47;;;8.73;;
12567;SDS011;6349;50.904;6.136;2024-01-11T01:51:22;13.53;;;8.50;;
12567;SDS011;6349;50.904;6.136;2024-01-11T01:53:25;13.30;;;9.17;;
12567;SDS011;6349;50.904;6.136;2024-01-11T01:55:28;12.20;;;8.60;;
12567;SDS011;6349;50.904;6.136;2024-01-11T01:57:29;13.73;;;9.00;;
12567;SDS011;6349;50.904;6.136;2024-01-11T01:59:32;12.87;;;8.80;;
12567;SDS011;6349;50.904;6.136;2024-01-11T02:01:33;15.77;;;9.57;;
12567;SDS011;6349;50.904;6.136;2024-01-11T02:03:34;13.33;;;9.93;;
12567;SDS011;6349;50.904;6.136;2024-01-11T02:05:36;13.77;;;9.10;;
12567;SDS011;6349;50.904;6.136;2024-01-11T02:07:37;13.40;;;9.70;;
12567;SDS011;6349;50.904;6.136;2024-01-11T02:09:38;16.83;;;9.60;;
12567;SDS011;6349;50.904;6.136;2024-01-11T02:11:43;12.90;;;9.10;;
12567;SDS011;6349;50.904;6.136;2024-01-11T02:13:45;13.13;;;8.83;;
12567;SDS011;6349;50.904;6.136;2024-01-11T02:15:46;13.73;;;9.10;;
12567;SDS011;6349;50.904;6.136;2024-01-11T02:17:46;13.47;;;8.83;;
12567;SDS011;6349;50.904;6.136;2024-01-11T02:19:47;11.97;;;8.53;;
12567;SDS011;6349;50.904;6.136;2024-01-11T02:21:48;12.80;;;8.90;;
12567;SDS011;6349;50.904;6.136;2024-01-11T02:24:05;13.93;;;9.57;;
12567;SDS011;6349;50.904;6.136;2024-01-11T02:26:06;10.90;;;8.73;;
12567;SDS011;6349;50.904;6.136;2024-01-11T02:28:07;14.23;;;9.33;;
12567;SDS011;6349;50.904;6.136;2024-01-11T02:30:08;13.27;;;9.10;;
12567;SDS011;6349;50.904;6.136;2024-01-11T02:32:09;12.73;;;8.37;;
12567;SDS011;6349;50.904;6.136;2024-01-11T02:34:10;12.67;;;8.50;;
12567;SDS011;6349;50.904;6.136;2024-01-11T02:36:10;14.43;;;9.70;;
12567;SDS011;6349;50.904;6.136;2024-01-11T02:38:11;10.73;;;8.70;;
12567;SDS011;6349;50.904;6.136;2024-01-11T02:40:12;14.23;;;9.60;;
12567;SDS011;6349;50.904;6.136;2024-01-11T02:42:13;12.73;;;9.30;;
12567;SDS011;6349;50.904;6.136;2024-01-11T02:44:14;12.57;;;8.67;;
12567;SDS011;6349;50.904;6.136;2024-01-11T02:46:15;14.60;;;9.30;;
12567;SDS011;6349;50.904;6.136;2024-01-11T02:48:17;12.93;;;9.30;;
12567;SDS011;6349;50.904;6.136;2024-01-11T02:50:18;11.93;;;9.27;;
12567;SDS011;6349;50.904;6.136;2024-01-11T02:52:18;11.50;;;8.73;;
12567;SDS011;6349;50.904;6.136;2024-01-11T02:54:19;13.13;;;8.80;;
12567;SDS011;6349;50.904;6.136;2024-01-11T02:56:19;11.67;;;8.30;;
12567;SDS011;6349;50.904;6.136;2024-01-11T02:58:20;12.27;;;8.73;;
12567;SDS011;6349;50.904;6.136;2024-01-11T03:00:20;12.50;;;8.90;;
12567;SDS011;6349;50.904;6.136;2024-01-11T03:02:21;11.60;;;8.90;;
12567;SDS011;6349;50.904;6.136;2024-01-11T03:04:22;12.37;;;8.50;;
12567;SDS011;6349;50.904;6.136;2024-01-11T03:06:22;11.97;;;8.30;;
12567;SDS011;6349;50.904;6.136;2024-01-11T03:08:23;12.57;;;8.30;;
12567;SDS011;6349;50.904;6.136;2024-01-11T03:10:23;12.07;;;8.60;;
12567;SDS011;6349;50.904;6.136;2024-01-11T03:12:24;12.20;;;8.60;;
12567;SDS011;6349;50.904;6.136;2024-01-11T03:14:26;12.83;;;8.60;;
12567;SDS011;6349;50.904;6.136;2024-01-11T03:16:26;11.53;;;8.40;;
12567;SDS011;6349;50.904;6.136;2024-01-11T03:18:27;12.17;;;8.00;;
12567;SDS011;6349;50.904;6.136;2024-01-11T03:20:27;10.20;;;7.90;;
12567;SDS011;6349;50.904;6.136;2024-01-11T03:22:29;12.43;;;8.23;;
12567;SDS011;6349;50.904;6.136;2024-01-11T03:24:29;11.00;;;8.23;;
12567;SDS011;6349;50.904;6.136;2024-01-11T03:26:30;11.37;;;8.43;;
12567;SDS011;6349;50.904;6.136;2024-01-11T03:28:30;11.80;;;8.83;;
12567;SDS011;6349;50.904;6.136;2024-01-11T03:30:31;12.20;;;8.70;;
12567;SDS011;6349;50.904;6.136;2024-01-11T03:32:32;13.53;;;8.50;;
12567;SDS011;6349;50.904;6.136;2024-01-11T03:34:32;11.13;;;8.27;;
12567;SDS011;6349;50.904;6.136;2024-01-11T03:36:33;11.60;;;8.07;;
12567;SDS011;6349;50.904;6.136;2024-01-11T03:38:33;11.10;;;8.53;;
12567;SDS011;6349;50.904;6.136;2024-01-11T03:40:34;12.47;;;8.80;;
12567;SDS011;6349;50.904;6.136;2024-01-11T03:42:35;13.07;;;8.43;;
12567;SDS011;6349;50.904;6.136;2024-01-11T03:44:36;11.73;;;8.07;;
12567;SDS011;6349;50.904;6.136;2024-01-11T03:46:37;13.47;;;8.90;;
12567;SDS011;6349;50.904;6.136;2024-01-11T03:48:37;10.73;;;8.13;;
12567;SDS011;6349;50.904;6.136;2024-01-11T03:50:38;11.33;;;8.47;;
12567;SDS011;6349;50.904;6.136;2024-01-11T03:52:39;14.30;;;8.83;;
12567;SDS011;6349;50.904;6.136;2024-01-11T03:54:39;12.60;;;9.27;;
12567;SDS011;6349;50.904;6.136;2024-01-11T03:56:40;13.43;;;9.47;;
12567;SDS011;6349;50.904;6.136;2024-01-11T03:58:41;13.33;;;9.77;;
12567;SDS011;6349;50.904;6.136;2024-01-11T04:00:44;13.83;;;9.90;;
12567;SDS011;6349;50.904;6.136;2024-01-11T04:02:45;14.70;;;9.90;;
12567;SDS011;6349;50.904;6.136;2024-01-11T04:04:45;13.10;;;9.40;;
12567;SDS011;6349;50.904;6.136;2024-01-11T04:06:46;13.30;;;9.30;;
12567;SDS011;6349;50.904;6.136;2024-01-11T04:08:47;14.73;;;10.20;;
12567;SDS011;6349;50.904;6.136;2024-01-11T04:10:48;15.43;;;9.47;;
12567;SDS011;6349;50.904;6.136;2024-01-11T04:12:48;14.53;;;9.50;;
12567;SDS011;6349;50.904;6.136;2024-01-11T04:14:49;13.03;;;9.00;;
12567;SDS011;6349;50.904;6.136;2024-01-11T04:16:50;12.20;;;8.77;;
12567;SDS011;6349;50.904;6.136;2024-01-11T04:18:50;12.27;;;9.13;;
12567;SDS011;6349;50.904;6.136;2024-01-11T04:20:51;11.50;;;8.73;;
12567;SDS011;6349;50.904;6.136;2024-01-11T04:22:51;12.10;;;9.20;;
12567;SDS011;6349;50.904;6.136;2024-01-11T04:24:52;12.27;;;9.23;;
12567;SDS011;6349;50.904;6.136;2024-01-11T04:26:52;13.40;;;9.70;;
12567;SDS011;6349;50.904;6.136;2024-01-11T04:28:53;13.10;;;9.10;;
12567;SDS011;6349;50.904;6.136;2024-01-11T04:30:53;12.50;;;9.60;;
12567;SDS011;6349;50.904;6.136;2024-01-11T04:32:54;13.77;;;9.37;;
12567;SDS011;6349;50.904;6.136;2024-01-11T04:34:54;14.63;;;9.37;;
12567;SDS011;6349;50.904;6.136;2024-01-11T04:36:55;12.93;;;9.40;;
12567;SDS011;6349;50.904;6.136;2024-01-11T04:38:56;14.80;;;9.23;;
12567;SDS011;6349;50.904;6.136;2024-01-11T04:40:56;14.57;;;9.63;;
12567;SDS011;6349;50.904;6.136;2024-01-11T04:42:57;13.50;;;9.77;;
12567;SDS011;6349;50.904;6.136;2024-01-11T04:44:57;13.07;;;9.13;;
12567;SDS011;6349;50.904;6.136;2024-01-11T04:46:58;13.50;;;9.37;;
12567;SDS011;6349;50.904;6.136;2024-01-11T04:48:58;13.37;;;9.73;;
12567;SDS011;6349;50.904;6.136;2024-01-11T04:50:59;12.93;;;9.00;;
12567;SDS011;6349;50.904;6.136;2024-01-11T04:52:59;12.27;;;8.97;;
12567;SDS011;6349;50.904;6.136;2024-01-11T04:55:00;13.83;;;9.20;;
12567;SDS011;6349;50.904;6.136;2024-01-11T04:57:01;14.07;;;9.43;;
12567;SDS011;6349;50.904;6.136;2024-01-11T04:59:03;13.67;;;9.10;;
12567;SDS011;6349;50.904;6.136;2024-01-11T05:01:04;17.27;;;10.37;;
12567;SDS011;6349;50.904;6.136;2024-01-11T05:03:05;13.20;;;9.73;;
12567;SDS011;6349;50.904;6.136;2024-01-11T05:05:06;13.17;;;9.20;;
12567;SDS011;6349;50.904;6.136;2024-01-11T05:07:06;14.23;;;9.27;;
12567;SDS011;6349;50.904;6.136;2024-01-11T05:09:07;13.20;;;9.73;;
12567;SDS011;6349;50.904;6.136;2024-01-11T05:11:08;17.97;;;11.33;;
12567;SDS011;6349;50.904;6.136;2024-01-11T05:13:14;16.77;;;11.20;;
12567;SDS011;6349;50.904;6.136;2024-01-11T05:15:15;16.30;;;11.07;;
12567;SDS011;6349;50.904;6.136;2024-01-11T05:17:15;15.57;;;10.80;;
12567;SDS011;6349;50.904;6.136;2024-01-11T05:19:16;16.20;;;10.23;;
12567;SDS011;6349;50.904;6.136;2024-01-11T05:21:16;17.07;;;11.60;;
12567;SDS011;6349;50.904;6.136;2024-01-11T05:23:17;16.03;;;10.70;;
12567;SDS011;6349;50.904;6.136;2024-01-11T05:25:18;18.73;;;11.27;;
12567;SDS011;6349;50.904;6.136;2024-01-11T05:27:18;16.73;;;10.47;;
12567;SDS011;6349;50.904;6.136;2024-01-11T05:29:19;18.97;;;10.93;;
12567;SDS011;6349;50.904;6.136;2024-01-11T05:31:19;14.10;;;10.23;;
12567;SDS011;6349;50.904;6.136;2024-01-11T05:33:20;16.33;;;9.97;;
12567;SDS011;6349;50.904;6.136;2024-01-11T05:35:21;15.20;;;10.17;;
12567;SDS011;6349;50.904;6.136;2024-01-11T05:37:24;14.67;;;10.30;;
12567;SDS011;6349;50.904;6.136;2024-01-11T05:39:24;13.57;;;9.47;;
12567;SDS011;6349;50.904;6.136;2024-01-11T05:41:25;16.40;;;9.70;;
12567;SDS011;6349;50.904;6.136;2024-01-11T05:43:25;15.63;;;10.73;;
12567;SDS011;6349;50.904;6.136;2024-01-11T05:45:26;15.90;;;10.23;;
12567;SDS011;6349;50.904;6.136;2024-01-11T05:47:27;15.37;;;10.90;;
12567;SDS011;6349;50.904;6.136;2024-01-11T05:49:27;16.27;;;10.10;;
12567;SDS011;6349;50.904;6.136;2024-01-11T05:51:28;16.80;;;10.17;;
12567;SDS011;6349;50.904;6.136;2024-01-11T05:53:28;15.80;;;10.37;;
12567;SDS011;6349;50.904;6.136;2024-01-11T05:55:29;16.20;;;11.23;;
12567;SDS011;6349;50.904;6.136;2024-01-11T05:57:29;14.77;;;10.27;;
12567;SDS011;6349;50.904;6.136;2024-01-11T05:59:30;16.57;;;11.00;;
12567;SDS011;6349;50.904;6.136;2024-01-11T06:01:30;16.87;;;11.70;;
12567;SDS011;6349;50.904;6.136;2024-01-11T06:03:32;14.80;;;10.67;;
12567;SDS011;6349;50.904;6.136;2024-01-11T06:05:34;14.53;;;10.53;;
12567;SDS011;6349;50.904;6.136;2024-01-11T06:07:34;14.97;;;10.27;;
12567;SDS011;6349;50.904;6.136;2024-01-11T06:09:35;13.10;;;9.60;;
12567;SDS011;6349;50.904;6.136;2024-01-11T06:11:36;12.93;;;10.07;;
12567;SDS011;6349;50.904;6.136;2024-01-11T06:13:36;14.13;;;9.63;;
12567;SDS011;6349;50.904;6.136;2024-01-11T06:15:39;14.37;;;10.17;;
12567;SDS011;6349;50.904;6.136;2024-01-11T06:17:40;14.60;;;10.37;;
12567;SDS011;6349;50.904;6.136;2024-01-11T06:19:41;15.60;;;10.57;;
12567;SDS011;6349;50.904;6.136;2024-01-11T06:21:41;16.87;;;10.83;;
12567;SDS011;6349;50.904;6.136;2024-01-11T06:23:43;16.90;;;11.83;;
12567;SDS011;6349;50.904;6.136;2024-01-11T06:25:43;15.63;;;10.97;;
12567;SDS011;6349;50.904;6.136;2024-01-11T06:27:46;13.10;;;10.33;;
12567;SDS011;6349;50.904;6.136;2024-01-11T06:29:47;14.13;;;10.33;;
12567;SDS011;6349;50.904;6.136;2024-01-11T06:31:47;15.30;;;10.93;;
12567;SDS011;6349;50.904;6.136;2024-01-11T06:33:48;14.33;;;9.97;;
12567;SDS011;6349;50.904;6.136;2024-01-11T06:35:48;15.03;;;9.97;;
12567;SDS011;6349;50.904;6.136;2024-01-11T06:37:49;15.13;;;10.57;;
12567;SDS011;6349;50.904;6.136;2024-01-11T06:39:49;15.23;;;10.30;;
12567;SDS011;6349;50.904;6.136;2024-01-11T06:41:50;14.47;;;11.07;;
12567;SDS011;6349;50.904;6.136;2024-01-11T06:43:51;19.40;;;12.20;;
12567;SDS011;6349;50.904;6.136;2024-01-11T06:45:51;15.67;;;11.67;;
12567;SDS011;6349;50.904;6.136;2024-01-11T06:47:53;15.60;;;11.37;;
12567;SDS011;6349;50.904;6.136;2024-01-11T06:49:53;16.70;;;11.40;;
12567;SDS011;6349;50.904;6.136;2024-01-11T06:51:54;17.23;;;11.43;;
12567;SDS011;6349;50.904;6.136;2024-01-11T06:53:54;19.50;;;12.13;;
12567;SDS011;6349;50.904;6.136;2024-01-11T06:55:55;16.30;;;11.70;;
12567;SDS011;6349;50.904;6.136;2024-01-11T06:57:55;16.07;;;12.07;;
12567;SDS011;6349;50.904;6.136;2024-01-11T06:59:57;15.73;;;11.00;;
12567;SDS011;6349;50.904;6.136;2024-01-11T07:01:58;17.53;;;11.80;;
12567;SDS011;6349;50.904;6.136;2024-01-11T07:03:58;17.30;;;12.60;;
12567;SDS011;6349;50.904;6.136;2024-01-11T07:05:59;15.67;;;11.50;;
12567;SDS011;6349;50.904;6.136;2024-01-11T07:07:59;17.00;;;11.57;;
12567;SDS011;6349;50.904;6.136;2024-01-11T07:10:00;14.57;;;10.90;;
12567;SDS011;6349;50.904;6.136;2024-01-11T07:12:00;16.40;;;11.87;;
12567;SDS011;6349;50.904;6.136;2024-01-11T07:14:01;16.17;;;11.47;;
12567;SDS011;6349;50.904;6.136;2024-01-11T07:16:05;17.10;;;10.73;;
12567;SDS011;6349;50.904;6.136;2024-01-11T07:18:05;14.43;;;10.03;;
12567;SDS011;6349;50.904;6.136;2024-01-11T07:20:06;12.33;;;9.43;;
12567;SDS011;6349;50.904;6.136;2024-01-11T07:22:07;12.80;;;10.20;;
12567;SDS011;6349;50.904;6.136;2024-01-11T07:24:08;14.70;;;10.10;;
12567;SDS011;6349;50.904;6.136;2024-01-11T07:26:09;15.27;;;10.97;;
12567;SDS011;6349;50.904;6.136;2024-01-11T07:28:09;15.30;;;10.33;;
12567;SDS011;6349;50.904;6.136;2024-01-11T07:30:10;14.27;;;10.90;;
12567;SDS011;6349;50.904;6.136;2024-01-11T07:32:11;14.03;;;10.23;;
12567;SDS011;6349;50.904;6.136;2024-01-11T07:34:12;15.27;;;10.87;;
12567;SDS011;6349;50.904;6.136;2024-01-11T07:36:12;16.17;;;10.73;;
12567;SDS011;6349;50.904;6.136;2024-01-11T07:38:13;16.37;;;10.53;;
12567;SDS011;6349;50.904;6.136;2024-01-11T07:40:14;15.93;;;10.70;;
12567;SDS011;6349;50.904;6.136;2024-01-11T07:42:14;15.67;;;10.77;;
12567;SDS011;6349;50.904;6.136;2024-01-11T07:44:16;13.20;;;10.30;;
12567;SDS011;6349;50.904;6.136;2024-01-11T07:46:16;15.50;;;11.20;;
12567;SDS011;6349;50.904;6.136;2024-01-11T07:48:17;14.87;;;10.43;;
12567;SDS011;6349;50.904;6.136;2024-01-11T07:50:18;16.03;;;10.73;;
12567;SDS011;6349;50.904;6.136;2024-01-11T07:52:18;14.30;;;10.07;;
12567;SDS011;6349;50.904;6.136;2024-01-11T07:54:19;13.00;;;9.87;;
12567;SDS011;6349;50.904;6.136;2024-01-11T07:56:19;14.77;;;10.37;;
12567;SDS011;6349;50.904;6.136;2024-01-11T07:58:20;14.40;;;10.33;;
12567;SDS011;6349;50.904;6.136;2024-01-11T08:00:21;18.17;;;12.17;;
12567;SDS011;6349;50.904;6.136;2024-01-11T08:02:21;16.07;;;12.13;;
12567;SDS011;6349;50.904;6.136;2024-01-11T08:04:23;18.93;;;12.10;;
12567;SDS011;6349;50.904;6.136;2024-01-11T08:06:23;16.93;;;12.20;;
12567;SDS011;6349;50.904;6.136;2024-01-11T08:08:24;14.90;;;10.63;;
12567;SDS011;6349;50.904;6.136;2024-01-11T08:10:24;16.97;;;11.77;;
12567;SDS011;6349;50.904;6.136;2024-01-11T08:12:25;17.07;;;11.93;;
12567;SDS011;6349;50.904;6.136;2024-01-11T08:14:26;19.10;;;12.60;;
12567;SDS011;6349;50.904;6.136;2024-01-11T08:16:26;18.10;;;12.33;;
12567;SDS011;6349;50.904;6.136;2024-01-11T08:18:27;19.17;;;13.03;;
12567;SDS011;6349;50.904;6.136;2024-01-11T08:20:28;18.57;;;12.73;;
12567;SDS011;6349;50.904;6.136;2024-01-11T08:22:29;20.67;;;13.83;;
12567;SDS011;6349;50.904;6.136;2024-01-11T08:24:34;18.07;;;13.07;;
12567;SDS011;6349;50.904;6.136;2024-01-11T08:26:36;19.80;;;13.00;;
12567;SDS011;6349;50.904;6.136;2024-01-11T08:28:36;19.80;;;13.20;;
12567;SDS011;6349;50.904;6.136;2024-01-11T08:30:37;19.07;;;13.57;;
12567;SDS011;6349;50.904;6.136;2024-01-11T08:32:37;19.20;;;13.37;;
12567;SDS011;6349;50.904;6.136;2024-01-11T08:34:39;17.77;;;13.00;;
12567;SDS011;6349;50.904;6.136;2024-01-11T08:36:40;19.77;;;13.30;;
12567;SDS011;6349;50.904;6.136;2024-01-11T08:38:40;19.50;;;13.10;;
12567;SDS011;6349;50.904;6.136;2024-01-11T08:40:41;19.20;;;13.70;;
12567;SDS011;6349;50.904;6.136;2024-01-11T08:42:41;17.83;;;13.30;;
12567;SDS011;6349;50.904;6.136;2024-01-11T08:44:42;20.07;;;13.27;;
12567;SDS011;6349;50.904;6.136;2024-01-11T08:46:43;17.63;;;12.30;;
12567;SDS011;6349;50.904;6.136;2024-01-11T08:48:44;16.80;;;12.37;;
12567;SDS011;6349;50.904;6.136;2024-01-11T08:50:44;18.33;;;12.83;;
12567;SDS011;6349;50.904;6.136;2024-01-11T08:52:45;19.70;;;13.93;;
12567;SDS011;6349;50.904;6.136;2024-01-11T08:54:46;17.83;;;12.73;;
12567;SDS011;6349;50.904;6.136;2024-01-11T08:56:47;20.93;;;14.33;;
12567;SDS011;6349;50.904;6.136;2024-01-11T08:58:47;16.97;;;12.90;;
12567;SDS011;6349;50.904;6.136;2024-01-11T09:00:48;20.77;;;13.40;;
12567;SDS011;6349;50.904;6.136;2024-01-11T09:02:49;21.77;;;14.23;;
12567;SDS011;6349;50.904;6.136;2024-01-11T09:04:49;21.13;;;13.90;;
12567;SDS011;6349;50.904;6.136;2024-01-11T09:06:50;18.23;;;13.10;;
12567;SDS011;6349;50.904;6.136;2024-01-11T09:08:51;19.00;;;13.43;;
12567;SDS011;6349;50.904;6.136;2024-01-11T09:10:52;19.60;;;13.73;;
12567;SDS011;6349;50.904;6.136;2024-01-11T09:12:53;19.77;;;13.23;;
12567;SDS011;6349;50.904;6.136;2024-01-11T09:14:54;17.90;;;13.07;;
12567;SDS011;6349;50.904;6.136;2024-01-11T09:16:55;18.67;;;13.63;;
12567;SDS011;6349;50.904;6.136;2024-01-11T09:18:56;17.17;;;12.57;;
12567;SDS011;6349;50.904;6.136;2024-01-11T09:20:56;21.00;;;13.00;;
12567;SDS011;6349;50.904;6.136;2024-01-11T09:22:57;18.37;;;12.50;;
12567;SDS011;6349;50.904;6.136;2024-01-11T09:24:57;17.23;;;13.07;;
12567;SDS011;6349;50.904;6.136;2024-01-11T09:26:58;17.63;;;12.93;;
12567;SDS011;6349;50.904;6.136;2024-01-11T09:28:58;17.97;;;12.43;;
12567;SDS011;6349;50.904;6.136;2024-01-11T09:30:59;17.30;;;12.40;;
12567;SDS011;6349;50.904;6.136;2024-01-11T09:33:00;18.73;;;12.80;;
12567;SDS011;6349;50.904;6.136;2024-01-11T09:35:02;17.60;;;12.73;;
12567;SDS011;6349;50.904;6.136;2024-01-11T09:37:04;16.70;;;12.63;;
12567;SDS011;6349;50.904;6.136;2024-01-11T09:39:05;18.43;;;13.50;;
12567;SDS011;6349;50.904;6.136;2024-01-11T09:41:08;18.30;;;12.80;;
12567;SDS011;6349;50.904;6.136;2024-01-11T09:43:11;19.90;;;13.90;;
12567;SDS011;6349;50.904;6.136;2024-01-11T09:45:12;22.27;;;14.23;;
12567;SDS011;6349;50.904;6.136;2024-01-11T09:47:15;21.93;;;14.80;;
12567;SDS011;6349;50.904;6.136;2024-01-11T09:49:17;21.33;;;15.60;;
12567;SDS011;6349;50.904;6.136;2024-01-11T09:51:21;20.90;;;13.90;;
12567;SDS011;6349;50.904;6.136;2024-01-11T09:53:22;20.27;;;14.00;;
12567;SDS011;6349;50.904;6.136;2024-01-11T09:55:25;22.77;;;15.00;;
12567;SDS011;6349;50.904;6.136;2024-01-11T09:57:30;21.60;;;13.90;;
12567;SDS011;6349;50.904;6.136;2024-01-11T09:59:32;19.83;;;13.83;;
12567;SDS011;6349;50.904;6.136;2024-01-11T10:01:34;18.70;;;13.57;;
12567;SDS011;6349;50.904;6.136;2024-01-11T10:03:34;20.27;;;14.10;;
12567;SDS011;6349;50.904;6.136;2024-01-11T10:05:35;19.80;;;14.30;;
12567;SDS011;6349;50.904;6.136;2024-01-11T10:07:36;20.03;;;13.50;;
12567;SDS011;6349;50.904;6.136;2024-01-11T10:09:38;21.60;;;15.07;;
12567;SDS011;6349;50.904;6.136;2024-01-11T10:11:38;20.93;;;13.97;;
12567;SDS011;6349;50.904;6.136;2024-01-11T10:13:39;17.60;;;13.93;;
12567;SDS011;6349;50.904;6.136;2024-01-11T10:15:40;20.30;;;14.33;;
12567;SDS011;6349;50.904;6.136;2024-01-11T10:17:41;20.50;;;15.23;;
12567;SDS011;6349;50.904;6.136;2024-01-11T10:19:44;18.60;;;13.83;;
12567;SDS011;6349;50.904;6.136;2024-01-11T10:21:44;21.90;;;14.67;;
12567;SDS011;6349;50.904;6.136;2024-01-11T10:23:45;22.50;;;16.13;;
12567;SDS011;6349;50.904;6.136;2024-01-11T10:25:45;23.03;;;16.83;;
12567;SDS011;6349;50.904;6.136;2024-01-11T10:27:46;21.20;;;15.47;;
12567;SDS011;6349;50.904;6.136;2024-01-11T10:29:47;24.83;;;16.57;;
12567;SDS011;6349;50.904;6.136;2024-01-11T10:31:47;23.87;;;16.87;;
12567;SDS011;6349;50.904;6.136;2024-01-11T10:33:48;24.30;;;16.60;;
12567;SDS011;6349;50.904;6.136;2024-01-11T10:35:48;20.87;;;14.53;;
12567;SDS011;6349;50.904;6.136;2024-01-11T10:37:50;20.80;;;14.83;;
12567;SDS011;6349;50.904;6.136;2024-01-11T10:39:53;20.20;;;14.63;;
12567;SDS011;6349;50.904;6.136;2024-01-11T10:42:02;22.77;;;15.07;;
12567;SDS011;6349;50.904;6.136;2024-01-11T10:44:06;20.03;;;15.13;;
12567;SDS011;6349;50.904;6.136;2024-01-11T10:46:30;22.90;;;15.23;;
12567;SDS011;6349;50.904;6.136;2024-01-11T10:48:38;20.17;;;14.37;;
12567;SDS011;6349;50.904;6.136;2024-01-11T10:50:44;21.57;;;15.00;;
12567;SDS011;6349;50.904;6.136;2024-01-11T10:52:49;21.53;;;14.87;;
12567;SDS011;6349;50.904;6.136;2024-01-11T10:54:52;20.90;;;14.77;;
12567;SDS011;6349;50.904;6.136;2024-01-11T10:56:54;22.27;;;14.80;;
12567;SDS011;6349;50.904;6.136;2024-01-11T10:58:55;19.33;;;14.20;;
12567;SDS011;6349;50.904;6.136;2024-01-11T11:00:56;21.30;;;14.90;;
12567;SDS011;6349;50.904;6.136;2024-01-11T11:02:59;18.77;;;14.00;;
12567;SDS011;6349;50.904;6.136;2024-01-11T11:05:00;19.60;;;14.43;;
12567;SDS011;6349;50.904;6.136;2024-01-11T11:07:04;20.40;;;14.50;;
12567;SDS011;6349;50.904;6.136;2024-01-11T11:09:07;21.93;;;14.53;;
12567;SDS011;6349;50.904;6.136;2024-01-11T11:11:10;23.30;;;15.40;;
12567;SDS011;6349;50.904;6.136;2024-01-11T11:13:11;21.63;;;15.37;;
12567;SDS011;6349;50.904;6.136;2024-01-11T11:15:15;22.33;;;15.60;;
12567;SDS011;6349;50.904;6.136;2024-01-11T11:17:15;22.97;;;15.40;;
12567;SDS011;6349;50.904;6.136;2024-01-11T11:19:16;21.73;;;15.43;;
12567;SDS011;6349;50.904;6.136;2024-01-11T11:21:19;23.73;;;16.40;;
12567;SDS011;6349;50.904;6.136;2024-01-11T11:23:21;21.40;;;14.67;;
12567;SDS011;6349;50.904;6.136;2024-01-11T11:25:25;23.20;;;15.80;;
12567;SDS011;6349;50.904;6.136;2024-01-11T11:27:25;22.67;;;15.10;;
12567;SDS011;6349;50.904;6.136;2024-01-11T11:29:26;21.60;;;15.23;;
12567;SDS011;6349;50.904;6.136;2024-01-11T11:31:37;23.77;;;15.83;;
12567;SDS011;6349;50.904;6.136;2024-01-11T11:33:38;20.30;;;14.83;;
12567;SDS011;6349;50.904;6.136;2024-01-11T11:35:38;23.10;;;16.47;;
12567;SDS011;6349;50.904;6.136;2024-01-11T11:37:39;21.27;;;15.03;;
12567;SDS011;6349;50.904;6.136;2024-01-11T11:39:41;23.27;;;14.67;;
12567;SDS011;6349;50.904;6.136;2024-01-11T11:41:42;20.53;;;14.70;;
12567;SDS011;6349;50.904;6.136;2024-01-11T11:43:42;21.93;;;15.07;;
12567;SDS011;6349;50.904;6.136;2024-01-11T11:45:48;23.13;;;15.13;;
12567;SDS011;6349;50.904;6.136;2024-01-11T11:47:50;22.47;;;15.30;;
12567;SDS011;6349;50.904;6.136;2024-01-11T11:50:03;21.13;;;15.07;;
12567;SDS011;6349;50.904;6.136;2024-01-11T11:52:13;21.43;;;15.13;;
12567;SDS011;6349;50.904;6.136;2024-01-11T11:54:15;18.73;;;14.63;;
12567;SDS011;6349;50.904;6.136;2024-01-11T11:56:17;20.87;;;14.77;;
12567;SDS011;6349;50.904;6.136;2024-01-11T11:58:20;22.23;;;15.13;;
12567;SDS011;6349;50.904;6.136;2024-01-11T12:00:20;20.63;;;15.17;;
12567;SDS011;6349;50.904;6.136;2024-01-11T12:02:21;19.87;;;15.17;;
12567;SDS011;6349;50.904;6.136;2024-01-11T12:04:24;22.90;;;15.37;;